sensor_id;sensor_type;location;lat;lon;timestamp;P1;durP1;ratioP1;P2;durP2;ratioP2
12715;SDS011;6422;49.938;9.124;2022-10-31T00:03:40;3.03;;;1.95;;
12715;SDS011;6422;49.938;9.124;2022-10-31T00:06:05;9.33;;;2.60;;
12715;SDS011;6422;49.938;9.124;2022-10-31T00:08:31;7.53;;;3.53;;
12715;SDS011;6422;49.938;9.124;2022-10-31T00:10:56;20.90;;;2.90;;
12715;SDS011;6422;49.938;9.124;2022-10-31T00:13:21;6.07;;;2.20;;
12715;SDS011;6422;49.938;9.124;2022-10-31T00:15:46;3.77;;;2.20;;
12715;SDS011;6422;49.938;9.124;2022-10-31T00:18:11;7.43;;;2.10;;
12715;SDS011;6422;49.938;9.124;2022-10-31T00:20:37;4.37;;;2.27;;
12715;SDS011;6422;49.938;9.124;2022-10-31T00:23:02;10.20;;;2.90;;
12715;SDS011;6422;49.938;9.124;2022-10-31T00:25:28;2.60;;;1.70;;
12715;SDS011;6422;49.938;9.124;2022-10-31T00:27:53;2.73;;;1.60;;
12715;SDS011;6422;49.938;9.124;2022-10-31T00:30:18;3.87;;;2.37;;
12715;SDS011;6422;49.938;9.124;2022-10-31T00:32:44;5.73;;;2.80;;
12715;SDS011;6422;49.938;9.124;2022-10-31T00:35:09;6.43;;;2.07;;
12715;SDS011;6422;49.938;9.124;2022-10-31T00:37:34;6.83;;;2.73;;
12715;SDS011;6422;49.938;9.124;2022-10-31T00:39:59;3.67;;;2.40;;
12715;SDS011;6422;49.938;9.124;2022-10-31T00:42:24;4.60;;;2.17;;
12715;SDS011;6422;49.938;9.124;2022-10-31T00:44:50;18.23;;;2.30;;
12715;SDS011;6422;49.938;9.124;2022-10-31T00:47:15;4.07;;;1.87;;
12715;SDS011;6422;49.938;9.124;2022-10-31T00:49:40;4.40;;;2.07;;
12715;SDS011;6422;49.938;9.124;2022-10-31T00:52:05;4.40;;;2.30;;
12715;SDS011;6422;49.938;9.124;2022-10-31T00:54:30;3.10;;;1.90;;
12715;SDS011;6422;49.938;9.124;2022-10-31T00:56:56;28.80;;;2.10;;
12715;SDS011;6422;49.938;9.124;2022-10-31T00:59:21;2.60;;;1.67;;
12715;SDS011;6422;49.938;9.124;2022-10-31T01:01:46;12.33;;;2.77;;
12715;SDS011;6422;49.938;9.124;2022-10-31T01:04:12;1.87;;;1.20;;
12715;SDS011;6422;49.938;9.124;2022-10-31T01:06:37;3.83;;;1.57;;
12715;SDS011;6422;49.938;9.124;2022-10-31T01:09:02;1.87;;;1.30;;
12715;SDS011;6422;49.938;9.124;2022-10-31T01:11:27;3.50;;;1.90;;
12715;SDS011;6422;49.938;9.124;2022-10-31T01:13:53;1.83;;;1.60;;
12715;SDS011;6422;49.938;9.124;2022-10-31T01:16:19;2.00;;;1.30;;
12715;SDS011;6422;49.938;9.124;2022-10-31T01:18:44;3.43;;;2.00;;
12715;SDS011;6422;49.938;9.124;2022-10-31T01:23:38;5.37;;;1.77;;
12715;SDS011;6422;49.938;9.124;2022-10-31T01:26:07;2.87;;;1.73;;
12715;SDS011;6422;49.938;9.124;2022-10-31T01:28:33;8.30;;;2.90;;
12715;SDS011;6422;49.938;9.124;2022-10-31T01:31:06;2.90;;;1.60;;
12715;SDS011;6422;49.938;9.124;2022-10-31T01:33:32;5.77;;;1.40;;
12715;SDS011;6422;49.938;9.124;2022-10-31T01:35:57;3.00;;;1.73;;
12715;SDS011;6422;49.938;9.124;2022-10-31T01:38:22;5.23;;;1.90;;
12715;SDS011;6422;49.938;9.124;2022-10-31T01:40:48;3.73;;;1.80;;
12715;SDS011;6422;49.938;9.124;2022-10-31T01:43:13;2.87;;;1.63;;
12715;SDS011;6422;49.938;9.124;2022-10-31T01:45:39;1.87;;;1.57;;
12715;SDS011;6422;49.938;9.124;2022-10-31T01:48:04;4.70;;;2.03;;
12715;SDS011;6422;49.938;9.124;2022-10-31T01:50:31;2.83;;;1.60;;
12715;SDS011;6422;49.938;9.124;2022-10-31T01:52:58;2.50;;;1.60;;
12715;SDS011;6422;49.938;9.124;2022-10-31T01:55:29;5.33;;;1.93;;
12715;SDS011;6422;49.938;9.124;2022-10-31T01:57:55;5.60;;;2.30;;
12715;SDS011;6422;49.938;9.124;2022-10-31T02:00:22;6.30;;;2.20;;
12715;SDS011;6422;49.938;9.124;2022-10-31T02:02:47;7.93;;;2.03;;
12715;SDS011;6422;49.938;9.124;2022-10-31T02:05:14;2.57;;;1.30;;
12715;SDS011;6422;49.938;9.124;2022-10-31T02:10:25;3.50;;;1.87;;
12715;SDS011;6422;49.938;9.124;2022-10-31T02:12:51;5.23;;;1.93;;
12715;SDS011;6422;49.938;9.124;2022-10-31T02:15:17;3.20;;;1.90;;
12715;SDS011;6422;49.938;9.124;2022-10-31T02:17:43;3.10;;;1.67;;
12715;SDS011;6422;49.938;9.124;2022-10-31T02:30:28;3.83;;;1.90;;
12715;SDS011;6422;49.938;9.124;2022-10-31T02:35:32;4.60;;;2.53;;
12715;SDS011;6422;49.938;9.124;2022-10-31T02:40:33;3.63;;;1.60;;
12715;SDS011;6422;49.938;9.124;2022-10-31T02:45:33;3.53;;;1.10;;
12715;SDS011;6422;49.938;9.124;2022-10-31T02:48:02;9.50;;;2.50;;
12715;SDS011;6422;49.938;9.124;2022-10-31T02:50:30;8.10;;;1.43;;
12715;SDS011;6422;49.938;9.124;2022-10-31T02:52:56;14.10;;;2.20;;
12715;SDS011;6422;49.938;9.124;2022-10-31T02:57:49;2.43;;;1.17;;
12715;SDS011;6422;49.938;9.124;2022-10-31T03:00:15;4.40;;;2.00;;
12715;SDS011;6422;49.938;9.124;2022-10-31T03:02:46;7.10;;;2.80;;
12715;SDS011;6422;49.938;9.124;2022-10-31T03:05:23;10.73;;;1.67;;
12715;SDS011;6422;49.938;9.124;2022-10-31T03:08:12;2.90;;;1.53;;
12715;SDS011;6422;49.938;9.124;2022-10-31T03:10:50;2.30;;;1.37;;
12715;SDS011;6422;49.938;9.124;2022-10-31T03:13:31;3.53;;;1.53;;
12715;SDS011;6422;49.938;9.124;2022-10-31T03:16:04;6.10;;;1.83;;
12715;SDS011;6422;49.938;9.124;2022-10-31T03:18:36;2.93;;;1.53;;
12715;SDS011;6422;49.938;9.124;2022-10-31T03:23:46;4.87;;;1.70;;
12715;SDS011;6422;49.938;9.124;2022-10-31T03:26:13;3.27;;;2.33;;
12715;SDS011;6422;49.938;9.124;2022-10-31T03:28:43;3.00;;;1.83;;
12715;SDS011;6422;49.938;9.124;2022-10-31T03:31:09;1.70;;;1.43;;
12715;SDS011;6422;49.938;9.124;2022-10-31T03:33:37;5.17;;;2.27;;
12715;SDS011;6422;49.938;9.124;2022-10-31T03:36:04;2.33;;;1.50;;
12715;SDS011;6422;49.938;9.124;2022-10-31T03:38:29;6.87;;;2.40;;
12715;SDS011;6422;49.938;9.124;2022-10-31T03:40:57;3.70;;;1.67;;
12715;SDS011;6422;49.938;9.124;2022-10-31T03:43:24;7.33;;;1.60;;
12715;SDS011;6422;49.938;9.124;2022-10-31T03:45:51;4.10;;;1.73;;
12715;SDS011;6422;49.938;9.124;2022-10-31T03:48:17;5.87;;;2.90;;
12715;SDS011;6422;49.938;9.124;2022-10-31T03:53:33;4.70;;;2.10;;
12715;SDS011;6422;49.938;9.124;2022-10-31T03:56:06;3.77;;;2.47;;
12715;SDS011;6422;49.938;9.124;2022-10-31T03:58:36;4.43;;;1.97;;
12715;SDS011;6422;49.938;9.124;2022-10-31T04:01:04;9.83;;;1.83;;
12715;SDS011;6422;49.938;9.124;2022-10-31T04:03:31;2.30;;;1.37;;
12715;SDS011;6422;49.938;9.124;2022-10-31T04:05:59;2.23;;;1.70;;
12715;SDS011;6422;49.938;9.124;2022-10-31T04:08:26;2.30;;;1.70;;
12715;SDS011;6422;49.938;9.124;2022-10-31T04:10:53;2.60;;;1.80;;
12715;SDS011;6422;49.938;9.124;2022-10-31T04:13:22;2.63;;;1.50;;
12715;SDS011;6422;49.938;9.124;2022-10-31T04:15:49;3.50;;;2.00;;
12715;SDS011;6422;49.938;9.124;2022-10-31T04:18:15;4.23;;;2.20;;
12715;SDS011;6422;49.938;9.124;2022-10-31T04:20:40;11.20;;;1.83;;
12715;SDS011;6422;49.938;9.124;2022-10-31T04:23:18;4.47;;;2.00;;
12715;SDS011;6422;49.938;9.124;2022-10-31T04:25:44;12.93;;;2.00;;
12715;SDS011;6422;49.938;9.124;2022-10-31T04:28:09;1.83;;;1.23;;
12715;SDS011;6422;49.938;9.124;2022-10-31T04:30:34;2.83;;;1.92;;
12715;SDS011;6422;49.938;9.124;2022-10-31T04:32:59;4.73;;;2.10;;
12715;SDS011;6422;49.938;9.124;2022-10-31T04:35:24;5.43;;;1.40;;
12715;SDS011;6422;49.938;9.124;2022-10-31T04:37:49;6.67;;;2.07;;
12715;SDS011;6422;49.938;9.124;2022-10-31T04:40:14;6.53;;;1.90;;
12715;SDS011;6422;49.938;9.124;2022-10-31T04:42:40;2.70;;;1.47;;
12715;SDS011;6422;49.938;9.124;2022-10-31T04:45:05;5.60;;;1.83;;
12715;SDS011;6422;49.938;9.124;2022-10-31T04:47:31;7.30;;;4.20;;
12715;SDS011;6422;49.938;9.124;2022-10-31T04:49:57;3.40;;;1.73;;
12715;SDS011;6422;49.938;9.124;2022-10-31T04:52:22;6.93;;;1.43;;
12715;SDS011;6422;49.938;9.124;2022-10-31T04:54:47;4.20;;;1.80;;
12715;SDS011;6422;49.938;9.124;2022-10-31T04:57:12;9.27;;;2.47;;
12715;SDS011;6422;49.938;9.124;2022-10-31T04:59:37;2.30;;;1.33;;
12715;SDS011;6422;49.938;9.124;2022-10-31T05:02:02;2.10;;;1.55;;
12715;SDS011;6422;49.938;9.124;2022-10-31T05:04:28;3.10;;;2.37;;
12715;SDS011;6422;49.938;9.124;2022-10-31T05:06:53;13.13;;;1.93;;
12715;SDS011;6422;49.938;9.124;2022-10-31T05:09:18;10.93;;;2.20;;
12715;SDS011;6422;49.938;9.124;2022-10-31T05:11:43;3.77;;;1.57;;
12715;SDS011;6422;49.938;9.124;2022-10-31T05:14:08;6.18;;;1.33;;
12715;SDS011;6422;49.938;9.124;2022-10-31T05:16:33;2.53;;;1.67;;
12715;SDS011;6422;49.938;9.124;2022-10-31T05:18:58;6.87;;;2.10;;
12715;SDS011;6422;49.938;9.124;2022-10-31T05:21:24;3.27;;;1.90;;
12715;SDS011;6422;49.938;9.124;2022-10-31T05:23:49;2.83;;;1.63;;
12715;SDS011;6422;49.938;9.124;2022-10-31T05:26:14;2.37;;;1.27;;
12715;SDS011;6422;49.938;9.124;2022-10-31T05:28:39;34.70;;;2.47;;
12715;SDS011;6422;49.938;9.124;2022-10-31T05:31:04;3.37;;;1.70;;
12715;SDS011;6422;49.938;9.124;2022-10-31T05:33:29;4.17;;;2.60;;
12715;SDS011;6422;49.938;9.124;2022-10-31T05:35:55;3.73;;;2.20;;
12715;SDS011;6422;49.938;9.124;2022-10-31T05:38:20;7.40;;;1.60;;
12715;SDS011;6422;49.938;9.124;2022-10-31T05:40:45;6.00;;;1.90;;
12715;SDS011;6422;49.938;9.124;2022-10-31T05:43:10;2.77;;;1.23;;
12715;SDS011;6422;49.938;9.124;2022-10-31T05:45:35;2.37;;;1.57;;
12715;SDS011;6422;49.938;9.124;2022-10-31T05:48:01;8.47;;;1.80;;
12715;SDS011;6422;49.938;9.124;2022-10-31T05:50:27;6.30;;;2.00;;
12715;SDS011;6422;49.938;9.124;2022-10-31T05:52:57;4.90;;;1.83;;
12715;SDS011;6422;49.938;9.124;2022-10-31T05:55:23;4.80;;;1.63;;
12715;SDS011;6422;49.938;9.124;2022-10-31T05:57:48;3.80;;;1.63;;
12715;SDS011;6422;49.938;9.124;2022-10-31T06:00:13;4.87;;;2.27;;
12715;SDS011;6422;49.938;9.124;2022-10-31T06:02:38;9.50;;;2.40;;
12715;SDS011;6422;49.938;9.124;2022-10-31T06:05:04;2.20;;;1.60;;
12715;SDS011;6422;49.938;9.124;2022-10-31T06:07:33;3.27;;;1.70;;
12715;SDS011;6422;49.938;9.124;2022-10-31T06:09:59;11.70;;;1.97;;
12715;SDS011;6422;49.938;9.124;2022-10-31T06:12:24;2.77;;;1.47;;
12715;SDS011;6422;49.938;9.124;2022-10-31T06:14:49;4.30;;;1.40;;
12715;SDS011;6422;49.938;9.124;2022-10-31T06:17:14;9.07;;;1.73;;
12715;SDS011;6422;49.938;9.124;2022-10-31T06:19:39;3.30;;;1.70;;
12715;SDS011;6422;49.938;9.124;2022-10-31T06:22:04;2.20;;;1.30;;
12715;SDS011;6422;49.938;9.124;2022-10-31T06:24:30;10.00;;;1.50;;
12715;SDS011;6422;49.938;9.124;2022-10-31T06:26:55;1.57;;;1.10;;
12715;SDS011;6422;49.938;9.124;2022-10-31T06:29:20;3.70;;;2.03;;
12715;SDS011;6422;49.938;9.124;2022-10-31T06:31:45;2.00;;;1.40;;
12715;SDS011;6422;49.938;9.124;2022-10-31T06:34:10;2.42;;;1.58;;
12715;SDS011;6422;49.938;9.124;2022-10-31T06:36:35;2.50;;;1.47;;
12715;SDS011;6422;49.938;9.124;2022-10-31T06:39:01;4.77;;;2.40;;
12715;SDS011;6422;49.938;9.124;2022-10-31T06:41:26;2.77;;;1.77;;
12715;SDS011;6422;49.938;9.124;2022-10-31T06:43:51;3.10;;;1.90;;
12715;SDS011;6422;49.938;9.124;2022-10-31T06:46:16;2.80;;;1.53;;
12715;SDS011;6422;49.938;9.124;2022-10-31T06:48:41;3.07;;;1.73;;
12715;SDS011;6422;49.938;9.124;2022-10-31T06:51:07;4.40;;;1.93;;
12715;SDS011;6422;49.938;9.124;2022-10-31T06:53:32;2.43;;;1.70;;
12715;SDS011;6422;49.938;9.124;2022-10-31T06:55:57;5.13;;;1.80;;
12715;SDS011;6422;49.938;9.124;2022-10-31T06:58:22;2.40;;;1.43;;
12715;SDS011;6422;49.938;9.124;2022-10-31T07:00:47;3.93;;;2.00;;
12715;SDS011;6422;49.938;9.124;2022-10-31T07:03:13;7.70;;;2.13;;
12715;SDS011;6422;49.938;9.124;2022-10-31T07:05:39;2.40;;;1.60;;
12715;SDS011;6422;49.938;9.124;2022-10-31T07:08:05;4.00;;;2.00;;
12715;SDS011;6422;49.938;9.124;2022-10-31T07:10:32;4.83;;;2.10;;
12715;SDS011;6422;49.938;9.124;2022-10-31T07:12:58;5.47;;;1.43;;
12715;SDS011;6422;49.938;9.124;2022-10-31T07:15:24;3.30;;;1.40;;
12715;SDS011;6422;49.938;9.124;2022-10-31T07:17:49;6.47;;;1.90;;
12715;SDS011;6422;49.938;9.124;2022-10-31T07:20:14;6.93;;;1.47;;
12715;SDS011;6422;49.938;9.124;2022-10-31T07:22:39;3.10;;;1.87;;
12715;SDS011;6422;49.938;9.124;2022-10-31T07:25:05;1.75;;;1.15;;
12715;SDS011;6422;49.938;9.124;2022-10-31T07:27:40;3.30;;;1.63;;
12715;SDS011;6422;49.938;9.124;2022-10-31T07:30:05;2.77;;;1.70;;
12715;SDS011;6422;49.938;9.124;2022-10-31T07:32:37;2.57;;;1.67;;
12715;SDS011;6422;49.938;9.124;2022-10-31T07:35:03;2.10;;;1.57;;
12715;SDS011;6422;49.938;9.124;2022-10-31T07:37:28;2.70;;;1.50;;
12715;SDS011;6422;49.938;9.124;2022-10-31T07:39:53;2.93;;;1.40;;
12715;SDS011;6422;49.938;9.124;2022-10-31T07:42:18;4.90;;;1.33;;
12715;SDS011;6422;49.938;9.124;2022-10-31T07:44:44;4.20;;;1.57;;
12715;SDS011;6422;49.938;9.124;2022-10-31T07:47:09;2.87;;;1.80;;
12715;SDS011;6422;49.938;9.124;2022-10-31T07:49:34;28.00;;;2.23;;
12715;SDS011;6422;49.938;9.124;2022-10-31T07:51:59;6.10;;;2.10;;
12715;SDS011;6422;49.938;9.124;2022-10-31T07:54:24;5.22;;;1.85;;
12715;SDS011;6422;49.938;9.124;2022-10-31T07:56:50;3.23;;;1.50;;
12715;SDS011;6422;49.938;9.124;2022-10-31T07:59:15;4.23;;;1.70;;
12715;SDS011;6422;49.938;9.124;2022-10-31T08:01:40;3.77;;;1.70;;
12715;SDS011;6422;49.938;9.124;2022-10-31T08:04:05;4.03;;;1.97;;
12715;SDS011;6422;49.938;9.124;2022-10-31T08:06:30;3.57;;;1.77;;
12715;SDS011;6422;49.938;9.124;2022-10-31T08:08:56;3.23;;;1.77;;
12715;SDS011;6422;49.938;9.124;2022-10-31T08:11:21;3.67;;;2.00;;
12715;SDS011;6422;49.938;9.124;2022-10-31T08:13:46;3.57;;;1.40;;
12715;SDS011;6422;49.938;9.124;2022-10-31T08:16:11;5.67;;;1.80;;
12715;SDS011;6422;49.938;9.124;2022-10-31T08:18:36;4.23;;;1.70;;
12715;SDS011;6422;49.938;9.124;2022-10-31T08:21:02;1.90;;;1.30;;
12715;SDS011;6422;49.938;9.124;2022-10-31T08:23:27;2.73;;;1.60;;
12715;SDS011;6422;49.938;9.124;2022-10-31T08:25:53;2.70;;;1.40;;
12715;SDS011;6422;49.938;9.124;2022-10-31T08:28:18;2.50;;;1.50;;
12715;SDS011;6422;49.938;9.124;2022-10-31T08:30:43;2.77;;;1.33;;
12715;SDS011;6422;49.938;9.124;2022-10-31T08:33:13;3.70;;;1.80;;
12715;SDS011;6422;49.938;9.124;2022-10-31T08:35:39;5.10;;;1.80;;
12715;SDS011;6422;49.938;9.124;2022-10-31T08:38:04;2.80;;;1.37;;
12715;SDS011;6422;49.938;9.124;2022-10-31T08:40:30;5.43;;;1.83;;
12715;SDS011;6422;49.938;9.124;2022-10-31T08:43:12;9.43;;;1.87;;
12715;SDS011;6422;49.938;9.124;2022-10-31T08:45:37;3.97;;;1.87;;
12715;SDS011;6422;49.938;9.124;2022-10-31T08:48:03;3.27;;;1.73;;
12715;SDS011;6422;49.938;9.124;2022-10-31T08:50:29;3.80;;;2.00;;
12715;SDS011;6422;49.938;9.124;2022-10-31T08:53:05;10.63;;;1.73;;
12715;SDS011;6422;49.938;9.124;2022-10-31T08:55:30;3.27;;;1.30;;
12715;SDS011;6422;49.938;9.124;2022-10-31T08:57:56;4.40;;;1.73;;
12715;SDS011;6422;49.938;9.124;2022-10-31T09:00:22;2.70;;;1.70;;
12715;SDS011;6422;49.938;9.124;2022-10-31T09:02:47;4.30;;;1.43;;
12715;SDS011;6422;49.938;9.124;2022-10-31T09:05:12;5.33;;;2.30;;
12715;SDS011;6422;49.938;9.124;2022-10-31T09:07:38;3.63;;;1.97;;
12715;SDS011;6422;49.938;9.124;2022-10-31T09:10:03;3.47;;;2.00;;
12715;SDS011;6422;49.938;9.124;2022-10-31T09:12:28;5.83;;;1.77;;
12715;SDS011;6422;49.938;9.124;2022-10-31T09:14:53;5.40;;;1.60;;
12715;SDS011;6422;49.938;9.124;2022-10-31T09:17:18;5.40;;;1.87;;
12715;SDS011;6422;49.938;9.124;2022-10-31T09:19:44;6.47;;;2.10;;
12715;SDS011;6422;49.938;9.124;2022-10-31T09:22:09;4.30;;;1.50;;
12715;SDS011;6422;49.938;9.124;2022-10-31T09:24:34;5.53;;;2.10;;
12715;SDS011;6422;49.938;9.124;2022-10-31T09:26:59;4.73;;;2.03;;
12715;SDS011;6422;49.938;9.124;2022-10-31T09:29:24;13.23;;;2.10;;
12715;SDS011;6422;49.938;9.124;2022-10-31T09:31:49;4.37;;;2.00;;
12715;SDS011;6422;49.938;9.124;2022-10-31T09:34:15;8.35;;;2.50;;
12715;SDS011;6422;49.938;9.124;2022-10-31T09:36:40;2.92;;;1.85;;
12715;SDS011;6422;49.938;9.124;2022-10-31T09:39:05;3.27;;;1.97;;
12715;SDS011;6422;49.938;9.124;2022-10-31T09:51:43;3.57;;;1.87;;
12715;SDS011;6422;49.938;9.124;2022-10-31T09:54:10;2.90;;;1.67;;
12715;SDS011;6422;49.938;9.124;2022-10-31T09:56:37;2.80;;;1.73;;
12715;SDS011;6422;49.938;9.124;2022-10-31T09:59:03;3.87;;;1.67;;
12715;SDS011;6422;49.938;9.124;2022-10-31T10:01:53;10.60;;;1.70;;
12715;SDS011;6422;49.938;9.124;2022-10-31T10:04:39;4.67;;;2.60;;
12715;SDS011;6422;49.938;9.124;2022-10-31T10:07:14;3.10;;;1.90;;
12715;SDS011;6422;49.938;9.124;2022-10-31T10:09:41;2.57;;;1.40;;
12715;SDS011;6422;49.938;9.124;2022-10-31T10:17:11;2.27;;;1.53;;
12715;SDS011;6422;49.938;9.124;2022-10-31T10:30:18;2.80;;;1.33;;
12715;SDS011;6422;49.938;9.124;2022-10-31T10:32:46;7.40;;;2.13;;
12715;SDS011;6422;49.938;9.124;2022-10-31T10:35:23;2.80;;;1.40;;
12715;SDS011;6422;49.938;9.124;2022-10-31T10:37:50;3.60;;;2.30;;
12715;SDS011;6422;49.938;9.124;2022-10-31T10:40:16;2.67;;;1.70;;
12715;SDS011;6422;49.938;9.124;2022-10-31T10:45:41;5.33;;;2.47;;
12715;SDS011;6422;49.938;9.124;2022-10-31T10:48:41;3.53;;;1.63;;
12715;SDS011;6422;49.938;9.124;2022-10-31T10:51:08;2.40;;;1.50;;
12715;SDS011;6422;49.938;9.124;2022-10-31T10:53:41;4.50;;;2.07;;
12715;SDS011;6422;49.938;9.124;2022-10-31T10:58:53;2.63;;;1.20;;
12715;SDS011;6422;49.938;9.124;2022-10-31T11:01:19;5.27;;;1.87;;
12715;SDS011;6422;49.938;9.124;2022-10-31T11:03:45;3.33;;;1.85;;
12715;SDS011;6422;49.938;9.124;2022-10-31T11:06:17;13.27;;;2.30;;
12715;SDS011;6422;49.938;9.124;2022-10-31T11:08:42;3.63;;;2.03;;
12715;SDS011;6422;49.938;9.124;2022-10-31T11:11:10;4.27;;;2.30;;
12715;SDS011;6422;49.938;9.124;2022-10-31T11:13:39;3.13;;;1.73;;
12715;SDS011;6422;49.938;9.124;2022-10-31T11:16:06;11.60;;;1.70;;
12715;SDS011;6422;49.938;9.124;2022-10-31T11:18:34;5.33;;;2.50;;
12715;SDS011;6422;49.938;9.124;2022-10-31T11:21:00;3.23;;;1.67;;
12715;SDS011;6422;49.938;9.124;2022-10-31T11:23:26;3.33;;;1.63;;
12715;SDS011;6422;49.938;9.124;2022-10-31T11:25:56;3.57;;;1.90;;
12715;SDS011;6422;49.938;9.124;2022-10-31T11:28:22;5.13;;;2.03;;
12715;SDS011;6422;49.938;9.124;2022-10-31T11:30:58;5.17;;;1.90;;
12715;SDS011;6422;49.938;9.124;2022-10-31T11:35:58;13.33;;;2.17;;
12715;SDS011;6422;49.938;9.124;2022-10-31T11:38:26;3.07;;;1.40;;
12715;SDS011;6422;49.938;9.124;2022-10-31T11:41:08;4.63;;;2.27;;
12715;SDS011;6422;49.938;9.124;2022-10-31T11:43:34;3.57;;;1.60;;
12715;SDS011;6422;49.938;9.124;2022-10-31T11:45:59;3.23;;;1.77;;
12715;SDS011;6422;49.938;9.124;2022-10-31T11:48:33;5.87;;;2.33;;
12715;SDS011;6422;49.938;9.124;2022-10-31T11:50:58;3.00;;;1.77;;
12715;SDS011;6422;49.938;9.124;2022-10-31T11:53:28;4.77;;;1.77;;
12715;SDS011;6422;49.938;9.124;2022-10-31T11:56:10;6.50;;;2.03;;
12715;SDS011;6422;49.938;9.124;2022-10-31T11:58:37;5.10;;;1.97;;
12715;SDS011;6422;49.938;9.124;2022-10-31T12:01:02;2.73;;;1.43;;
12715;SDS011;6422;49.938;9.124;2022-10-31T12:06:00;12.63;;;2.23;;
12715;SDS011;6422;49.938;9.124;2022-10-31T12:08:30;9.00;;;1.97;;
12715;SDS011;6422;49.938;9.124;2022-10-31T12:11:06;5.27;;;1.47;;
12715;SDS011;6422;49.938;9.124;2022-10-31T12:13:34;4.43;;;1.57;;
12715;SDS011;6422;49.938;9.124;2022-10-31T12:16:04;9.20;;;1.73;;
12715;SDS011;6422;49.938;9.124;2022-10-31T12:26:23;5.27;;;1.90;;
12715;SDS011;6422;49.938;9.124;2022-10-31T12:31:47;18.27;;;2.73;;
12715;SDS011;6422;49.938;9.124;2022-10-31T12:34:40;5.53;;;1.97;;
12715;SDS011;6422;49.938;9.124;2022-10-31T12:37:15;3.33;;;1.90;;
12715;SDS011;6422;49.938;9.124;2022-10-31T12:39:44;4.33;;;1.97;;
12715;SDS011;6422;49.938;9.124;2022-10-31T12:42:55;3.97;;;1.50;;
12715;SDS011;6422;49.938;9.124;2022-10-31T12:50:52;3.08;;;1.30;;
12715;SDS011;6422;49.938;9.124;2022-10-31T12:55:20;6.53;;;2.17;;
12715;SDS011;6422;49.938;9.124;2022-10-31T12:57:50;22.33;;;2.20;;
12715;SDS011;6422;49.938;9.124;2022-10-31T13:00:18;2.30;;;1.27;;
12715;SDS011;6422;49.938;9.124;2022-10-31T13:05:29;5.93;;;2.20;;
12715;SDS011;6422;49.938;9.124;2022-10-31T13:07:57;5.10;;;1.60;;
12715;SDS011;6422;49.938;9.124;2022-10-31T13:10:28;8.90;;;2.83;;
12715;SDS011;6422;49.938;9.124;2022-10-31T13:12:55;3.03;;;1.67;;
12715;SDS011;6422;49.938;9.124;2022-10-31T13:15:23;8.93;;;1.90;;
12715;SDS011;6422;49.938;9.124;2022-10-31T13:18:11;9.63;;;1.83;;
12715;SDS011;6422;49.938;9.124;2022-10-31T13:20:37;2.90;;;1.87;;
12715;SDS011;6422;49.938;9.124;2022-10-31T13:25:33;6.07;;;2.20;;
12715;SDS011;6422;49.938;9.124;2022-10-31T13:28:02;5.43;;;2.40;;
12715;SDS011;6422;49.938;9.124;2022-10-31T13:30:29;10.20;;;2.93;;
12715;SDS011;6422;49.938;9.124;2022-10-31T13:33:08;3.10;;;1.63;;
12715;SDS011;6422;49.938;9.124;2022-10-31T13:38:04;9.65;;;1.70;;
12715;SDS011;6422;49.938;9.124;2022-10-31T13:40:39;6.00;;;2.20;;
12715;SDS011;6422;49.938;9.124;2022-10-31T13:45:35;4.57;;;1.67;;
12715;SDS011;6422;49.938;9.124;2022-10-31T13:50:39;8.63;;;2.40;;
12715;SDS011;6422;49.938;9.124;2022-10-31T13:55:43;8.63;;;1.90;;
12715;SDS011;6422;49.938;9.124;2022-10-31T13:58:22;8.53;;;2.00;;
12715;SDS011;6422;49.938;9.124;2022-10-31T14:00:58;2.60;;;1.43;;
12715;SDS011;6422;49.938;9.124;2022-10-31T14:03:23;5.80;;;2.10;;
12715;SDS011;6422;49.938;9.124;2022-10-31T14:05:53;4.23;;;1.80;;
12715;SDS011;6422;49.938;9.124;2022-10-31T14:08:19;4.30;;;2.73;;
12715;SDS011;6422;49.938;9.124;2022-10-31T14:10:47;3.33;;;2.00;;
12715;SDS011;6422;49.938;9.124;2022-10-31T14:15:42;9.10;;;2.33;;
12715;SDS011;6422;49.938;9.124;2022-10-31T14:18:18;2.50;;;1.57;;
12715;SDS011;6422;49.938;9.124;2022-10-31T14:20:46;3.77;;;2.07;;
12715;SDS011;6422;49.938;9.124;2022-10-31T14:25:37;12.98;;;2.17;;
12715;SDS011;6422;49.938;9.124;2022-10-31T14:28:17;4.37;;;1.90;;
12715;SDS011;6422;49.938;9.124;2022-10-31T14:30:50;9.30;;;3.80;;
12715;SDS011;6422;49.938;9.124;2022-10-31T14:33:17;8.20;;;1.73;;
12715;SDS011;6422;49.938;9.124;2022-10-31T14:35:57;7.13;;;2.50;;
12715;SDS011;6422;49.938;9.124;2022-10-31T14:43:52;27.73;;;4.17;;
12715;SDS011;6422;49.938;9.124;2022-10-31T14:51:26;5.13;;;2.03;;
12715;SDS011;6422;49.938;9.124;2022-10-31T14:53:56;3.10;;;1.73;;
12715;SDS011;6422;49.938;9.124;2022-10-31T14:56:29;3.60;;;2.20;;
12715;SDS011;6422;49.938;9.124;2022-10-31T14:58:59;7.93;;;2.10;;
12715;SDS011;6422;49.938;9.124;2022-10-31T15:01:50;9.33;;;3.10;;
12715;SDS011;6422;49.938;9.124;2022-10-31T15:04:18;11.40;;;2.73;;
12715;SDS011;6422;49.938;9.124;2022-10-31T15:06:59;3.30;;;1.67;;
12715;SDS011;6422;49.938;9.124;2022-10-31T15:11:50;3.73;;;2.23;;
12715;SDS011;6422;49.938;9.124;2022-10-31T15:14:26;4.03;;;2.07;;
12715;SDS011;6422;49.938;9.124;2022-10-31T15:16:52;5.00;;;2.27;;
12715;SDS011;6422;49.938;9.124;2022-10-31T15:19:20;4.93;;;2.53;;
12715;SDS011;6422;49.938;9.124;2022-10-31T15:21:46;4.20;;;2.73;;
12715;SDS011;6422;49.938;9.124;2022-10-31T15:24:14;5.47;;;3.17;;
12715;SDS011;6422;49.938;9.124;2022-10-31T15:26:43;8.23;;;3.10;;
12715;SDS011;6422;49.938;9.124;2022-10-31T15:29:13;6.70;;;2.20;;
12715;SDS011;6422;49.938;9.124;2022-10-31T15:31:39;19.63;;;3.07;;
12715;SDS011;6422;49.938;9.124;2022-10-31T15:34:15;4.70;;;2.77;;
12715;SDS011;6422;49.938;9.124;2022-10-31T15:36:41;4.73;;;2.70;;
12715;SDS011;6422;49.938;9.124;2022-10-31T15:39:09;11.13;;;2.90;;
12715;SDS011;6422;49.938;9.124;2022-10-31T15:41:54;9.70;;;3.27;;
12715;SDS011;6422;49.938;9.124;2022-10-31T15:46:51;34.87;;;3.37;;
12715;SDS011;6422;49.938;9.124;2022-10-31T15:52:05;7.83;;;2.70;;
12715;SDS011;6422;49.938;9.124;2022-10-31T15:54:31;6.30;;;3.40;;
12715;SDS011;6422;49.938;9.124;2022-10-31T15:56:56;4.40;;;2.60;;
12715;SDS011;6422;49.938;9.124;2022-10-31T15:59:22;2.63;;;1.87;;
12715;SDS011;6422;49.938;9.124;2022-10-31T16:02:02;7.17;;;2.67;;
12715;SDS011;6422;49.938;9.124;2022-10-31T16:04:28;11.63;;;3.87;;
12715;SDS011;6422;49.938;9.124;2022-10-31T16:07:11;7.97;;;3.47;;
12715;SDS011;6422;49.938;9.124;2022-10-31T16:09:37;4.40;;;2.97;;
12715;SDS011;6422;49.938;9.124;2022-10-31T16:12:14;6.50;;;2.93;;
12715;SDS011;6422;49.938;9.124;2022-10-31T16:14:39;9.53;;;3.60;;
12715;SDS011;6422;49.938;9.124;2022-10-31T16:17:06;7.83;;;3.47;;
12715;SDS011;6422;49.938;9.124;2022-10-31T16:19:36;16.13;;;4.17;;
12715;SDS011;6422;49.938;9.124;2022-10-31T16:22:08;6.33;;;3.30;;
12715;SDS011;6422;49.938;9.124;2022-10-31T16:24:37;7.53;;;3.70;;
12715;SDS011;6422;49.938;9.124;2022-10-31T16:27:15;8.10;;;3.40;;
12715;SDS011;6422;49.938;9.124;2022-10-31T16:29:43;10.23;;;3.83;;
12715;SDS011;6422;49.938;9.124;2022-10-31T16:32:27;5.40;;;3.27;;
12715;SDS011;6422;49.938;9.124;2022-10-31T16:35:16;7.87;;;3.57;;
12715;SDS011;6422;49.938;9.124;2022-10-31T16:37:42;7.90;;;3.33;;
12715;SDS011;6422;49.938;9.124;2022-10-31T16:40:08;5.77;;;3.20;;
12715;SDS011;6422;49.938;9.124;2022-10-31T16:42:34;5.70;;;3.93;;
12715;SDS011;6422;49.938;9.124;2022-10-31T16:45:00;14.27;;;3.37;;
12715;SDS011;6422;49.938;9.124;2022-10-31T16:47:25;9.03;;;3.40;;
12715;SDS011;6422;49.938;9.124;2022-10-31T16:49:50;10.27;;;3.83;;
12715;SDS011;6422;49.938;9.124;2022-10-31T16:52:16;8.90;;;3.77;;
12715;SDS011;6422;49.938;9.124;2022-10-31T16:54:41;8.60;;;5.07;;
12715;SDS011;6422;49.938;9.124;2022-10-31T16:57:06;15.40;;;5.10;;
12715;SDS011;6422;49.938;9.124;2022-10-31T16:59:37;7.70;;;4.13;;
12715;SDS011;6422;49.938;9.124;2022-10-31T17:02:02;6.00;;;3.83;;
12715;SDS011;6422;49.938;9.124;2022-10-31T17:04:28;8.20;;;3.60;;
12715;SDS011;6422;49.938;9.124;2022-10-31T17:06:53;6.63;;;3.27;;
12715;SDS011;6422;49.938;9.124;2022-10-31T17:09:18;7.53;;;3.30;;
12715;SDS011;6422;49.938;9.124;2022-10-31T17:11:45;16.77;;;4.57;;